sensor_id;sensor_type;location;lat;lon;timestamp;P1;durP1;ratioP1;P2;durP2;ratioP2
69951;SDS011;60406;48.408;13.392;2023-12-20T00:01:58;36.25;;;22.55;;
69951;SDS011;60406;48.408;13.392;2023-12-20T00:06:59;43.53;;;24.17;;
69951;SDS011;60406;48.408;13.392;2023-12-20T00:12:00;34.85;;;23.40;;
69951;SDS011;60406;48.408;13.392;2023-12-20T00:17:01;39.30;;;23.27;;
69951;SDS011;60406;48.408;13.392;2023-12-20T00:22:02;40.92;;;26.13;;
69951;SDS011;60406;48.408;13.392;2023-12-20T00:27:03;37.88;;;24.42;;
69951;SDS011;60406;48.408;13.392;2023-12-20T00:32:04;31.15;;;22.10;;
69951;SDS011;60406;48.408;13.392;2023-12-20T00:37:09;33.75;;;23.33;;
69951;SDS011;60406;48.408;13.392;2023-12-20T00:42:10;29.52;;;22.45;;
69951;SDS011;60406;48.408;13.392;2023-12-20T00:47:11;32.20;;;23.90;;
69951;SDS011;60406;48.408;13.392;2023-12-20T00:52:12;29.52;;;21.88;;
69951;SDS011;60406;48.408;13.392;2023-12-20T00:57:13;34.95;;;25.25;;
69951;SDS011;60406;48.408;13.392;2023-12-20T01:02:14;34.45;;;25.67;;
69951;SDS011;60406;48.408;13.392;2023-12-20T01:07:14;37.33;;;25.80;;
69951;SDS011;60406;48.408;13.392;2023-12-20T01:12:15;41.35;;;27.70;;
69951;SDS011;60406;48.408;13.392;2023-12-20T01:17:16;32.72;;;25.42;;
69951;SDS011;60406;48.408;13.392;2023-12-20T01:22:17;34.50;;;25.50;;
69951;SDS011;60406;48.408;13.392;2023-12-20T01:27:18;31.75;;;24.77;;
69951;SDS011;60406;48.408;13.392;2023-12-20T01:32:19;34.65;;;23.40;;
69951;SDS011;60406;48.408;13.392;2023-12-20T01:37:20;35.08;;;23.83;;
69951;SDS011;60406;48.408;13.392;2023-12-20T01:42:20;28.48;;;21.48;;
69951;SDS011;60406;48.408;13.392;2023-12-20T01:47:21;29.02;;;21.98;;
69951;SDS011;60406;48.408;13.392;2023-12-20T01:52:22;32.45;;;23.17;;
69951;SDS011;60406;48.408;13.392;2023-12-20T01:57:32;28.77;;;22.25;;
69951;SDS011;60406;48.408;13.392;2023-12-20T02:02:33;30.17;;;21.20;;
69951;SDS011;60406;48.408;13.392;2023-12-20T02:07:34;32.45;;;23.08;;
69951;SDS011;60406;48.408;13.392;2023-12-20T02:12:35;29.67;;;21.30;;
69951;SDS011;60406;48.408;13.392;2023-12-20T02:17:36;28.42;;;20.85;;
69951;SDS011;60406;48.408;13.392;2023-12-20T02:22:36;29.10;;;22.33;;
69951;SDS011;60406;48.408;13.392;2023-12-20T02:27:38;30.55;;;22.48;;
69951;SDS011;60406;48.408;13.392;2023-12-20T02:32:39;30.85;;;22.60;;
69951;SDS011;60406;48.408;13.392;2023-12-20T02:37:40;28.05;;;21.30;;
69951;SDS011;60406;48.408;13.392;2023-12-20T02:42:41;31.90;;;22.77;;
69951;SDS011;60406;48.408;13.392;2023-12-20T02:47:42;31.60;;;23.08;;
69951;SDS011;60406;48.408;13.392;2023-12-20T02:52:44;31.75;;;23.13;;
69951;SDS011;60406;48.408;13.392;2023-12-20T02:57:45;28.73;;;23.65;;
69951;SDS011;60406;48.408;13.392;2023-12-20T03:02:46;28.83;;;21.85;;
69951;SDS011;60406;48.408;13.392;2023-12-20T03:07:47;31.65;;;23.35;;
69951;SDS011;60406;48.408;13.392;2023-12-20T03:12:48;27.45;;;21.58;;
69951;SDS011;60406;48.408;13.392;2023-12-20T03:17:49;32.95;;;22.73;;
69951;SDS011;60406;48.408;13.392;2023-12-20T03:22:50;34.33;;;24.33;;
69951;SDS011;60406;48.408;13.392;2023-12-20T03:27:52;35.72;;;24.50;;
69951;SDS011;60406;48.408;13.392;2023-12-20T03:32:53;34.15;;;25.52;;
69951;SDS011;60406;48.408;13.392;2023-12-20T03:37:54;34.78;;;25.05;;
69951;SDS011;60406;48.408;13.392;2023-12-20T03:42:54;40.17;;;24.40;;
69951;SDS011;60406;48.408;13.392;2023-12-20T03:47:55;29.80;;;23.40;;
69951;SDS011;60406;48.408;13.392;2023-12-20T03:52:56;31.70;;;23.30;;
69951;SDS011;60406;48.408;13.392;2023-12-20T03:57:57;32.83;;;23.88;;
69951;SDS011;60406;48.408;13.392;2023-12-20T04:02:58;34.85;;;24.80;;
69951;SDS011;60406;48.408;13.392;2023-12-20T04:08:00;32.35;;;24.33;;
69951;SDS011;60406;48.408;13.392;2023-12-20T04:13:02;33.40;;;25.80;;
69951;SDS011;60406;48.408;13.392;2023-12-20T04:18:03;33.40;;;24.42;;
69951;SDS011;60406;48.408;13.392;2023-12-20T04:23:04;29.83;;;22.08;;
69951;SDS011;60406;48.408;13.392;2023-12-20T04:28:05;31.23;;;22.98;;
69951;SDS011;60406;48.408;13.392;2023-12-20T04:33:06;35.40;;;23.08;;
69951;SDS011;60406;48.408;13.392;2023-12-20T04:38:07;30.70;;;23.23;;
69951;SDS011;60406;48.408;13.392;2023-12-20T04:43:08;31.67;;;22.13;;
69951;SDS011;60406;48.408;13.392;2023-12-20T04:48:09;32.70;;;23.13;;
69951;SDS011;60406;48.408;13.392;2023-12-20T04:53:10;28.58;;;21.38;;
69951;SDS011;60406;48.408;13.392;2023-12-20T04:58:11;28.90;;;21.58;;
69951;SDS011;60406;48.408;13.392;2023-12-20T05:03:12;32.25;;;21.75;;
69951;SDS011;60406;48.408;13.392;2023-12-20T05:08:12;28.60;;;21.58;;
69951;SDS011;60406;48.408;13.392;2023-12-20T05:13:13;35.00;;;25.88;;
69951;SDS011;60406;48.408;13.392;2023-12-20T05:18:14;31.05;;;23.73;;
69951;SDS011;60406;48.408;13.392;2023-12-20T05:23:15;34.22;;;25.52;;
69951;SDS011;60406;48.408;13.392;2023-12-20T05:28:16;37.30;;;27.73;;
69951;SDS011;60406;48.408;13.392;2023-12-20T05:33:17;35.08;;;28.10;;
69951;SDS011;60406;48.408;13.392;2023-12-20T05:38:19;31.33;;;25.10;;
69951;SDS011;60406;48.408;13.392;2023-12-20T05:43:20;32.33;;;25.42;;
69951;SDS011;60406;48.408;13.392;2023-12-20T05:48:21;28.52;;;21.92;;
69951;SDS011;60406;48.408;13.392;2023-12-20T05:53:22;26.50;;;22.52;;
69951;SDS011;60406;48.408;13.392;2023-12-20T05:58:22;24.83;;;19.67;;
69951;SDS011;60406;48.408;13.392;2023-12-20T06:03:23;28.48;;;21.85;;
69951;SDS011;60406;48.408;13.392;2023-12-20T06:08:24;29.48;;;21.98;;
69951;SDS011;60406;48.408;13.392;2023-12-20T06:13:25;31.13;;;22.75;;
69951;SDS011;60406;48.408;13.392;2023-12-20T06:18:26;32.20;;;22.35;;
69951;SDS011;60406;48.408;13.392;2023-12-20T06:23:27;28.80;;;20.77;;
69951;SDS011;60406;48.408;13.392;2023-12-20T06:28:28;30.73;;;22.10;;
69951;SDS011;60406;48.408;13.392;2023-12-20T06:33:29;32.30;;;21.92;;
69951;SDS011;60406;48.408;13.392;2023-12-20T06:38:29;29.83;;;22.60;;
69951;SDS011;60406;48.408;13.392;2023-12-20T06:43:30;29.60;;;24.10;;
69951;SDS011;60406;48.408;13.392;2023-12-20T06:48:31;42.92;;;29.42;;
69951;SDS011;60406;48.408;13.392;2023-12-20T06:53:32;39.55;;;30.40;;
69951;SDS011;60406;48.408;13.392;2023-12-20T06:58:33;43.65;;;35.30;;
69951;SDS011;60406;48.408;13.392;2023-12-20T07:03:34;28.60;;;21.63;;
69951;SDS011;60406;48.408;13.392;2023-12-20T07:08:35;27.98;;;20.95;;
69951;SDS011;60406;48.408;13.392;2023-12-20T07:13:36;19.15;;;14.35;;
69951;SDS011;60406;48.408;13.392;2023-12-20T07:18:37;16.40;;;13.73;;
69951;SDS011;60406;48.408;13.392;2023-12-20T07:23:38;20.30;;;12.38;;
69951;SDS011;60406;48.408;13.392;2023-12-20T07:28:38;17.00;;;13.10;;
69951;SDS011;60406;48.408;13.392;2023-12-20T07:33:39;19.73;;;13.05;;
69951;SDS011;60406;48.408;13.392;2023-12-20T07:38:40;21.25;;;15.02;;
69951;SDS011;60406;48.408;13.392;2023-12-20T07:43:41;16.65;;;13.63;;
69951;SDS011;60406;48.408;13.392;2023-12-20T07:48:42;26.08;;;19.10;;
69951;SDS011;60406;48.408;13.392;2023-12-20T07:53:43;14.82;;;12.05;;
69951;SDS011;60406;48.408;13.392;2023-12-20T07:58:44;16.52;;;10.35;;
69951;SDS011;60406;48.408;13.392;2023-12-20T08:03:45;13.02;;;9.00;;
69951;SDS011;60406;48.408;13.392;2023-12-20T08:08:46;8.40;;;5.85;;
69951;SDS011;60406;48.408;13.392;2023-12-20T08:13:47;7.43;;;5.45;;
69951;SDS011;60406;48.408;13.392;2023-12-20T08:18:48;9.80;;;6.90;;
69951;SDS011;60406;48.408;13.392;2023-12-20T08:23:49;15.48;;;10.75;;
69951;SDS011;60406;48.408;13.392;2023-12-20T08:28:50;11.32;;;8.32;;
69951;SDS011;60406;48.408;13.392;2023-12-20T08:33:51;14.95;;;9.40;;
69951;SDS011;60406;48.408;13.392;2023-12-20T08:38:52;13.57;;;10.50;;
69951;SDS011;60406;48.408;13.392;2023-12-20T08:43:53;8.57;;;6.78;;
69951;SDS011;60406;48.408;13.392;2023-12-20T08:48:53;11.70;;;8.77;;
69951;SDS011;60406;48.408;13.392;2023-12-20T08:53:54;15.77;;;10.07;;
69951;SDS011;60406;48.408;13.392;2023-12-20T08:58:55;15.60;;;11.18;;
69951;SDS011;60406;48.408;13.392;2023-12-20T09:03:56;17.25;;;12.32;;
69951;SDS011;60406;48.408;13.392;2023-12-20T09:08:57;28.10;;;18.88;;
69951;SDS011;60406;48.408;13.392;2023-12-20T09:13:58;32.47;;;21.80;;
69951;SDS011;60406;48.408;13.392;2023-12-20T09:18:59;14.50;;;12.50;;
69951;SDS011;60406;48.408;13.392;2023-12-20T09:23:59;20.52;;;15.70;;
69951;SDS011;60406;48.408;13.392;2023-12-20T09:29:00;19.98;;;17.75;;
69951;SDS011;60406;48.408;13.392;2023-12-20T09:34:01;18.40;;;16.40;;
69951;SDS011;60406;48.408;13.392;2023-12-20T09:39:02;16.55;;;14.20;;
69951;SDS011;60406;48.408;13.392;2023-12-20T09:44:03;11.05;;;9.40;;
69951;SDS011;60406;48.408;13.392;2023-12-20T09:49:04;14.80;;;11.15;;
69951;SDS011;60406;48.408;13.392;2023-12-20T09:54:05;9.07;;;7.07;;
69951;SDS011;60406;48.408;13.392;2023-12-20T09:59:06;24.58;;;14.65;;
69951;SDS011;60406;48.408;13.392;2023-12-20T10:04:07;13.38;;;10.20;;
69951;SDS011;60406;48.408;13.392;2023-12-20T10:09:09;11.38;;;8.10;;
69951;SDS011;60406;48.408;13.392;2023-12-20T10:14:11;6.65;;;5.40;;
69951;SDS011;60406;48.408;13.392;2023-12-20T10:19:11;9.40;;;6.55;;
69951;SDS011;60406;48.408;13.392;2023-12-20T10:24:16;10.93;;;6.32;;
69951;SDS011;60406;48.408;13.392;2023-12-20T10:29:18;8.27;;;6.18;;
69951;SDS011;60406;48.408;13.392;2023-12-20T10:34:18;7.13;;;5.72;;
69951;SDS011;60406;48.408;13.392;2023-12-20T10:39:19;10.57;;;8.02;;
69951;SDS011;60406;48.408;13.392;2023-12-20T10:44:20;8.60;;;6.75;;
69951;SDS011;60406;48.408;13.392;2023-12-20T10:49:21;12.63;;;8.05;;
69951;SDS011;60406;48.408;13.392;2023-12-20T10:54:22;11.75;;;9.27;;
69951;SDS011;60406;48.408;13.392;2023-12-20T10:59:24;13.25;;;9.60;;
69951;SDS011;60406;48.408;13.392;2023-12-20T11:04:34;9.85;;;7.22;;
69951;SDS011;60406;48.408;13.392;2023-12-20T11:09:43;13.23;;;8.07;;
69951;SDS011;60406;48.408;13.392;2023-12-20T11:14:49;15.93;;;8.52;;
69951;SDS011;60406;48.408;13.392;2023-12-20T11:25:06;6.85;;;5.78;;
69951;SDS011;60406;48.408;13.392;2023-12-20T11:30:08;9.60;;;6.78;;
69951;SDS011;60406;48.408;13.392;2023-12-20T11:40:14;6.28;;;4.72;;
69951;SDS011;60406;48.408;13.392;2023-12-20T11:45:19;8.25;;;5.95;;
69951;SDS011;60406;48.408;13.392;2023-12-20T11:50:24;9.75;;;6.78;;
69951;SDS011;60406;48.408;13.392;2023-12-20T11:55:25;8.20;;;6.45;;
69951;SDS011;60406;48.408;13.392;2023-12-20T12:00:26;6.68;;;5.20;;
69951;SDS011;60406;48.408;13.392;2023-12-20T12:05:27;10.40;;;5.55;;
69951;SDS011;60406;48.408;13.392;2023-12-20T12:10:31;9.85;;;6.57;;
69951;SDS011;60406;48.408;13.392;2023-12-20T12:15:31;7.55;;;6.68;;
69951;SDS011;60406;48.408;13.392;2023-12-20T12:20:32;10.05;;;8.80;;
69951;SDS011;60406;48.408;13.392;2023-12-20T12:25:35;10.38;;;8.80;;
69951;SDS011;60406;48.408;13.392;2023-12-20T12:30:36;8.30;;;6.55;;
69951;SDS011;60406;48.408;13.392;2023-12-20T12:35:37;6.90;;;5.78;;
69951;SDS011;60406;48.408;13.392;2023-12-20T12:40:38;5.07;;;4.55;;
69951;SDS011;60406;48.408;13.392;2023-12-20T12:45:38;4.25;;;3.85;;
69951;SDS011;60406;48.408;13.392;2023-12-20T12:50:39;4.70;;;3.65;;
69951;SDS011;60406;48.408;13.392;2023-12-20T12:55:40;4.88;;;3.30;;
69951;SDS011;60406;48.408;13.392;2023-12-20T13:00:41;3.15;;;2.85;;
69951;SDS011;60406;48.408;13.392;2023-12-20T13:05:42;3.85;;;3.05;;
69951;SDS011;60406;48.408;13.392;2023-12-20T13:10:43;3.78;;;2.45;;
69951;SDS011;60406;48.408;13.392;2023-12-20T13:15:44;2.45;;;2.25;;
69951;SDS011;60406;48.408;13.392;2023-12-20T13:20:45;2.50;;;2.30;;
69951;SDS011;60406;48.408;13.392;2023-12-20T13:25:45;2.58;;;2.35;;
69951;SDS011;60406;48.408;13.392;2023-12-20T13:30:46;6.50;;;3.80;;
69951;SDS011;60406;48.408;13.392;2023-12-20T13:35:47;8.00;;;6.07;;
69951;SDS011;60406;48.408;13.392;2023-12-20T13:40:48;6.28;;;4.30;;
69951;SDS011;60406;48.408;13.392;2023-12-20T13:45:49;9.25;;;7.22;;
69951;SDS011;60406;48.408;13.392;2023-12-20T13:50:50;12.68;;;9.32;;
69951;SDS011;60406;48.408;13.392;2023-12-20T13:55:51;9.40;;;6.40;;
69951;SDS011;60406;48.408;13.392;2023-12-20T14:00:51;4.18;;;3.22;;
69951;SDS011;60406;48.408;13.392;2023-12-20T14:05:52;2.17;;;1.98;;
69951;SDS011;60406;48.408;13.392;2023-12-20T14:10:53;2.75;;;2.38;;
69951;SDS011;60406;48.408;13.392;2023-12-20T14:15:54;1.90;;;1.65;;
69951;SDS011;60406;48.408;13.392;2023-12-20T14:20:55;4.60;;;1.30;;
69951;SDS011;60406;48.408;13.392;2023-12-20T14:25:56;2.55;;;1.58;;
69951;SDS011;60406;48.408;13.392;2023-12-20T14:30:56;4.82;;;3.35;;
69951;SDS011;60406;48.408;13.392;2023-12-20T14:35:57;4.65;;;1.90;;
69951;SDS011;60406;48.408;13.392;2023-12-20T14:40:58;10.10;;;5.55;;
69951;SDS011;60406;48.408;13.392;2023-12-20T14:45:59;4.10;;;3.03;;
69951;SDS011;60406;48.408;13.392;2023-12-20T14:51:00;5.55;;;2.70;;
69951;SDS011;60406;48.408;13.392;2023-12-20T14:56:01;4.70;;;2.88;;
69951;SDS011;60406;48.408;13.392;2023-12-20T15:01:02;4.82;;;3.55;;
69951;SDS011;60406;48.408;13.392;2023-12-20T15:06:03;5.80;;;3.78;;
69951;SDS011;60406;48.408;13.392;2023-12-20T15:11:04;8.15;;;4.20;;
69951;SDS011;60406;48.408;13.392;2023-12-20T15:16:05;9.00;;;5.97;;
69951;SDS011;60406;48.408;13.392;2023-12-20T15:21:06;10.05;;;5.03;;
69951;SDS011;60406;48.408;13.392;2023-12-20T15:26:06;5.53;;;2.97;;
69951;SDS011;60406;48.408;13.392;2023-12-20T15:31:07;3.08;;;1.92;;
69951;SDS011;60406;48.408;13.392;2023-12-20T15:36:08;4.70;;;2.85;;
69951;SDS011;60406;48.408;13.392;2023-12-20T15:41:09;6.38;;;3.10;;
69951;SDS011;60406;48.408;13.392;2023-12-20T15:46:17;6.45;;;3.75;;
69951;SDS011;60406;48.408;13.392;2023-12-20T15:51:19;13.57;;;7.20;;
69951;SDS011;60406;48.408;13.392;2023-12-20T15:56:21;18.30;;;9.88;;
69951;SDS011;60406;48.408;13.392;2023-12-20T16:01:22;8.00;;;5.80;;
69951;SDS011;60406;48.408;13.392;2023-12-20T16:06:23;8.40;;;5.78;;
69951;SDS011;60406;48.408;13.392;2023-12-20T16:11:23;10.77;;;6.57;;
69951;SDS011;60406;48.408;13.392;2023-12-20T16:16:24;13.40;;;7.80;;
69951;SDS011;60406;48.408;13.392;2023-12-20T16:21:25;6.70;;;4.68;;
69951;SDS011;60406;48.408;13.392;2023-12-20T16:26:27;4.65;;;3.42;;
69951;SDS011;60406;48.408;13.392;2023-12-20T16:31:28;6.57;;;3.10;;
69951;SDS011;60406;48.408;13.392;2023-12-20T16:36:47;4.25;;;2.50;;
69951;SDS011;60406;48.408;13.392;2023-12-20T16:41:52;8.00;;;3.90;;
69951;SDS011;60406;48.408;13.392;2023-12-20T16:46:52;19.67;;;10.40;;
69951;SDS011;60406;48.408;13.392;2023-12-20T16:51:53;6.75;;;4.50;;
69951;SDS011;60406;48.408;13.392;2023-12-20T16:56:54;7.25;;;3.25;;
69951;SDS011;60406;48.408;13.392;2023-12-20T17:01:55;8.38;;;4.22;;
69951;SDS011;60406;48.408;13.392;2023-12-20T17:06:56;5.30;;;2.10;;
69951;SDS011;60406;48.408;13.392;2023-12-20T17:11:57;4.88;;;2.25;;
69951;SDS011;60406;48.408;13.392;2023-12-20T17:16:58;2.58;;;1.92;;
69951;SDS011;60406;48.408;13.392;2023-12-20T17:21:59;7.40;;;2.83;;
69951;SDS011;60406;48.408;13.392;2023-12-20T17:27:00;7.70;;;2.78;;
69951;SDS011;60406;48.408;13.392;2023-12-20T17:32:00;4.50;;;2.28;;
69951;SDS011;60406;48.408;13.392;2023-12-20T17:37:01;3.75;;;2.20;;
69951;SDS011;60406;48.408;13.392;2023-12-20T17:42:02;4.18;;;2.17;;
69951;SDS011;60406;48.408;13.392;2023-12-20T17:47:03;8.82;;;2.58;;
69951;SDS011;60406;48.408;13.392;2023-12-20T17:52:04;13.52;;;2.78;;
69951;SDS011;60406;48.408;13.392;2023-12-20T17:57:05;2.85;;;2.03;;
69951;SDS011;60406;48.408;13.392;2023-12-20T18:02:06;6.25;;;2.53;;
69951;SDS011;60406;48.408;13.392;2023-12-20T18:07:07;8.85;;;2.85;;
69951;SDS011;60406;48.408;13.392;2023-12-20T18:12:08;3.97;;;2.90;;
69951;SDS011;60406;48.408;13.392;2023-12-20T18:17:09;6.43;;;3.35;;
69951;SDS011;60406;48.408;13.392;2023-12-20T18:22:10;31.80;;;15.63;;
69951;SDS011;60406;48.408;13.392;2023-12-20T18:27:11;5.07;;;2.80;;
69951;SDS011;60406;48.408;13.392;2023-12-20T18:32:12;7.20;;;2.70;;
69951;SDS011;60406;48.408;13.392;2023-12-20T18:37:13;12.05;;;5.70;;
69951;SDS011;60406;48.408;13.392;2023-12-20T18:42:13;8.82;;;3.67;;
69951;SDS011;60406;48.408;13.392;2023-12-20T18:47:14;6.25;;;2.60;;
69951;SDS011;60406;48.408;13.392;2023-12-20T18:52:15;10.75;;;3.95;;
69951;SDS011;60406;48.408;13.392;2023-12-20T18:57:16;5.18;;;2.90;;
69951;SDS011;60406;48.408;13.392;2023-12-20T19:02:17;7.00;;;3.05;;
69951;SDS011;60406;48.408;13.392;2023-12-20T19:07:18;7.25;;;3.85;;
69951;SDS011;60406;48.408;13.392;2023-12-20T19:12:19;4.90;;;3.03;;
69951;SDS011;60406;48.408;13.392;2023-12-20T19:17:20;7.10;;;3.40;;
69951;SDS011;60406;48.408;13.392;2023-12-20T19:22:20;7.47;;;3.80;;
69951;SDS011;60406;48.408;13.392;2023-12-20T19:27:21;7.82;;;4.95;;
69951;SDS011;60406;48.408;13.392;2023-12-20T19:32:22;3.40;;;2.47;;
69951;SDS011;60406;48.408;13.392;2023-12-20T19:37:23;8.60;;;2.90;;
69951;SDS011;60406;48.408;13.392;2023-12-20T19:42:24;7.28;;;3.20;;
69951;SDS011;60406;48.408;13.392;2023-12-20T19:47:25;10.18;;;4.15;;
69951;SDS011;60406;48.408;13.392;2023-12-20T19:52:26;3.70;;;2.33;;
69951;SDS011;60406;48.408;13.392;2023-12-20T19:57:26;6.38;;;2.05;;
69951;SDS011;60406;48.408;13.392;2023-12-20T20:02:27;4.20;;;2.63;;
69951;SDS011;60406;48.408;13.392;2023-12-20T20:07:28;4.88;;;1.98;;
69951;SDS011;60406;48.408;13.392;2023-12-20T20:12:29;4.22;;;2.15;;
69951;SDS011;60406;48.408;13.392;2023-12-20T20:17:30;3.17;;;2.20;;
69951;SDS011;60406;48.408;13.392;2023-12-20T20:22:31;4.10;;;1.25;;
69951;SDS011;60406;48.408;13.392;2023-12-20T20:27:32;3.03;;;2.25;;
69951;SDS011;60406;48.408;13.392;2023-12-20T20:32:32;9.80;;;2.72;;
69951;SDS011;60406;48.408;13.392;2023-12-20T20:37:33;2.22;;;1.88;;
69951;SDS011;60406;48.408;13.392;2023-12-20T20:42:35;5.28;;;2.40;;
69951;SDS011;60406;48.408;13.392;2023-12-20T20:47:36;2.72;;;1.98;;
69951;SDS011;60406;48.408;13.392;2023-12-20T20:52:37;4.95;;;2.83;;
69951;SDS011;60406;48.408;13.392;2023-12-20T20:57:38;5.20;;;2.00;;
69951;SDS011;60406;48.408;13.392;2023-12-20T21:02:38;5.00;;;2.20;;
69951;SDS011;60406;48.408;13.392;2023-12-20T21:07:39;4.07;;;1.95;;
69951;SDS011;60406;48.408;13.392;2023-12-20T21:12:40;4.45;;;1.80;;
69951;SDS011;60406;48.408;13.392;2023-12-20T21:17:41;4.00;;;1.65;;
69951;SDS011;60406;48.408;13.392;2023-12-20T21:22:42;2.65;;;1.20;;
69951;SDS011;60406;48.408;13.392;2023-12-20T21:27:43;1.98;;;0.77;;
69951;SDS011;60406;48.408;13.392;2023-12-20T21:32:44;1.92;;;1.20;;
69951;SDS011;60406;48.408;13.392;2023-12-20T21:37:44;3.88;;;1.00;;
69951;SDS011;60406;48.408;13.392;2023-12-20T21:42:46;3.33;;;0.77;;
69951;SDS011;60406;48.408;13.392;2023-12-20T21:47:46;2.80;;;1.00;;
69951;SDS011;60406;48.408;13.392;2023-12-20T21:52:48;2.85;;;0.82;;
69951;SDS011;60406;48.408;13.392;2023-12-20T21:57:48;2.40;;;1.05;;
69951;SDS011;60406;48.408;13.392;2023-12-20T22:02:49;3.95;;;1.90;;
69951;SDS011;60406;48.408;13.392;2023-12-20T22:07:50;6.45;;;1.15;;
69951;SDS011;60406;48.408;13.392;2023-12-20T22:12:51;1.30;;;0.77;;
69951;SDS011;60406;48.408;13.392;2023-12-20T22:17:52;5.70;;;1.00;;
69951;SDS011;60406;48.408;13.392;2023-12-20T22:22:53;5.55;;;0.75;;
69951;SDS011;60406;48.408;13.392;2023-12-20T22:27:54;2.13;;;1.45;;
69951;SDS011;60406;48.408;13.392;2023-12-20T22:32:54;2.55;;;1.00;;
69951;SDS011;60406;48.408;13.392;2023-12-20T22:37:55;1.42;;;0.95;;
69951;SDS011;60406;48.408;13.392;2023-12-20T22:42:56;4.13;;;1.42;;
69951;SDS011;60406;48.408;13.392;2023-12-20T22:47:57;3.40;;;1.80;;
69951;SDS011;60406;48.408;13.392;2023-12-20T22:52:58;2.88;;;1.20;;
69951;SDS011;60406;48.408;13.392;2023-12-20T22:57:59;3.05;;;1.35;;
69951;SDS011;60406;48.408;13.392;2023-12-20T23:03:00;2.42;;;1.15;;
69951;SDS011;60406;48.408;13.392;2023-12-20T23:08:01;1.23;;;1.13;;
69951;SDS011;60406;48.408;13.392;2023-12-20T23:13:02;1.83;;;0.68;;
69951;SDS011;60406;48.408;13.392;2023-12-20T23:18:02;2.72;;;1.10;;
69951;SDS011;60406;48.408;13.392;2023-12-20T23:23:04;1.75;;;1.13;;
69951;SDS011;60406;48.408;13.392;2023-12-20T23:28:05;1.30;;;0.75;;
69951;SDS011;60406;48.408;13.392;2023-12-20T23:33:06;5.78;;;1.13;;
69951;SDS011;60406;48.408;13.392;2023-12-20T23:38:06;2.65;;;1.40;;
69951;SDS011;60406;48.408;13.392;2023-12-20T23:43:07;5.20;;;1.27;;
69951;SDS011;60406;48.408;13.392;2023-12-20T23:48:08;2.10;;;1.10;;
69951;SDS011;60406;48.408;13.392;2023-12-20T23:53:09;2.78;;;0.80;;
69951;SDS011;60406;48.408;13.392;2023-12-20T23:58:10;2.80;;;0.90;;
